KOXD/OXD METAR and TAF weather

Enter ICAO airport designator
Station Type Date Time Source
KOXD METAR 2020/10/20 17:55 UTC NOAA

KOXD 201755Z AUTO 05007KT 10SM OVC005 11/11 A3019 RMK AO2 60001 T01120112 10112 20082


Station Type Date Time Source
KOXD Decoded METAR 2020/10/20 17:55 UTC NOAA

Station name not available
Oct 20, 2020 - 01:55 PM EDT / 2020.10.20 1755 UTC
Wind: from the NE (050 degrees) at 8 MPH (7 KT):0
Visibility: 10 mile(s):0
Sky conditions: overcast
Temperature: 52.2 F (11.2 C)
Dew Point: 52.2 F (11.2 C)
Relative Humidity: 100%
Pressure (altimeter): 30.19 in. Hg (1022 hPa)
ob: KOXD 201755Z AUTO 05007KT 10SM OVC005 11/11 A3019 RMK AO2 60001 T01120112 10112 20082
cycle: 18

Station Type Date Time Source
KOXD TAF UTC NOAA

Error!

Example: see airport list